Orbital elements of INTELSAT 901
| Launched | 8 June 2001 |
| Flight ended | – |
| Launch site | Europe's Spaceport, Kourou, French Guiana |
| Owner | International Telecommunications Satellite Organization (INTELSAT) |
| NORAD ID | 26824 |
| Alternative names |
IS-901 |
| Date fetched |
Epoch osculation |
Inc. [°] |
Ecc. | RA asc node [hr] |
Arg Peri. [°] |
Mean anom [°] |
Mean motion [rev/day] |
Abs. mag |
| Date fetched |
Epoch osculation |
Inc. [°] |
Ecc. | RA asc node [hr] |
Arg Peri. [°] |
Mean anom [°] |
Mean motion [rev/day] |
Abs. mag |
| 2026 May 08 17:57 | 2026 May 05 04:18:26 | 1.1461 | 0.00059 | 5.6782 | 344.6962 | 262.6598 | 0.98819 | – |
| 2026 May 07 17:58 | 2026 May 05 04:18:26 | 1.1461 | 0.00059 | 5.6782 | 344.6962 | 262.6598 | 0.98819 | – |
| 2026 May 06 17:57 | 2026 May 05 04:18:26 | 1.1461 | 0.00059 | 5.6782 | 344.6962 | 262.6598 | 0.98819 | – |
| 2026 May 05 17:57 | 2026 May 05 04:18:26 | 1.1461 | 0.00059 | 5.6782 | 344.6962 | 262.6598 | 0.98819 | – |
| 2026 May 04 17:57 | 2026 Apr 30 13:43:27 | 1.1351 | 0.00057 | 5.6818 | 342.2810 | 262.6598 | 0.98819 | – |
| 2026 May 03 17:57 | 2026 Apr 30 13:43:27 | 1.1351 | 0.00057 | 5.6818 | 342.2810 | 262.6598 | 0.98819 | – |
| 2026 May 02 17:57 | 2026 Apr 30 13:43:27 | 1.1351 | 0.00057 | 5.6818 | 342.2810 | 262.6598 | 0.98819 | – |
| 2026 May 01 17:56 | 2026 Apr 30 13:43:27 | 1.1351 | 0.00057 | 5.6818 | 342.2810 | 262.6598 | 0.98819 | – |
| 2026 Apr 30 17:56 | 2026 Apr 30 13:43:27 | 1.1351 | 0.00057 | 5.6818 | 342.2810 | 262.6598 | 0.98819 | – |
| 2026 Apr 29 17:57 | 2026 Apr 24 12:25:14 | 1.1193 | 0.00053 | 5.6857 | 338.9711 | 262.6598 | 0.98819 | – |
| 2026 Apr 28 17:56 | 2026 Apr 24 12:25:14 | 1.1193 | 0.00053 | 5.6857 | 338.9711 | 262.6598 | 0.98819 | – |
| 2026 Apr 27 17:58 | 2026 Apr 24 12:25:14 | 1.1193 | 0.00053 | 5.6857 | 338.9711 | 262.6598 | 0.98819 | – |
| 2026 Apr 26 17:58 | 2026 Apr 24 12:25:14 | 1.1193 | 0.00053 | 5.6857 | 338.9711 | 262.6598 | 0.98819 | – |
| 2026 Apr 25 17:58 | 2026 Apr 24 12:25:14 | 1.1193 | 0.00053 | 5.6857 | 338.9711 | 262.6598 | 0.98819 | – |
| 2026 Apr 24 17:59 | 2026 Apr 24 12:25:14 | 1.1193 | 0.00053 | 5.6857 | 338.9711 | 262.6598 | 0.98819 | – |
| 2026 Apr 23 17:57 | 2026 Apr 19 10:44:51 | 1.1044 | 0.00051 | 5.6906 | 338.0830 | 262.6598 | 0.98819 | – |
| 2026 Apr 22 17:57 | 2026 Apr 19 10:44:51 | 1.1044 | 0.00051 | 5.6906 | 338.0830 | 262.6598 | 0.98819 | – |
| 2026 Apr 21 17:57 | 2026 Apr 19 10:44:51 | 1.1044 | 0.00051 | 5.6906 | 338.0830 | 262.6598 | 0.98819 | – |
| 2026 Apr 20 17:57 | 2026 Apr 19 10:44:51 | 1.1044 | 0.00051 | 5.6906 | 338.0830 | 262.6598 | 0.98819 | – |
| 2026 Apr 19 17:58 | 2026 Apr 19 10:44:51 | 1.1044 | 0.00051 | 5.6906 | 338.0830 | 262.6598 | 0.98819 | – |
| 2026 Apr 18 17:56 | 2026 Apr 13 05:38:38 | 1.0869 | 0.00053 | 5.6980 | 338.1222 | 262.6598 | 0.98819 | – |
| 2026 Apr 16 17:57 | 2026 Apr 13 05:38:38 | 1.0869 | 0.00053 | 5.6980 | 338.1222 | 262.6598 | 0.98819 | – |
| 2026 Apr 14 17:57 | 2026 Apr 13 05:38:38 | 1.0869 | 0.00053 | 5.6980 | 338.1222 | 262.6598 | 0.98819 | – |
| 2026 Apr 13 17:57 | 2026 Apr 13 05:38:38 | 1.0869 | 0.00053 | 5.6980 | 338.1222 | 262.6598 | 0.98819 | – |
| 2026 Apr 12 17:57 | 2026 Apr 08 13:29:50 | 1.0751 | 0.00054 | 5.7031 | 337.3703 | 262.6598 | 0.98819 | – |
| 2026 Apr 11 17:57 | 2026 Apr 08 13:29:50 | 1.0751 | 0.00054 | 5.7031 | 337.3703 | 262.6598 | 0.98819 | – |